sensor_id;sensor_type;location;lat;lon;timestamp;pressure;altitude;pressure_sealevel;temperature;humidity
9855;BME280;4966;48.112;9.282;2023-04-24T00:00:39;93817.44;;;11.43;81.37
9855;BME280;4966;48.112;9.282;2023-04-24T00:03:06;93808.53;;;11.46;81.40
9855;BME280;4966;48.112;9.282;2023-04-24T00:05:32;93804.91;;;11.61;81.07
9855;BME280;4966;48.112;9.282;2023-04-24T00:08:04;93803.94;;;11.50;81.58
9855;BME280;4966;48.112;9.282;2023-04-24T00:10:30;93805.81;;;11.69;80.54
9855;BME280;4966;48.112;9.282;2023-04-24T00:12:55;93801.38;;;11.61;81.28
9855;BME280;4966;48.112;9.282;2023-04-24T00:15:24;93799.06;;;11.36;81.64
9855;BME280;4966;48.112;9.282;2023-04-24T00:17:50;93798.69;;;11.15;82.39
9855;BME280;4966;48.112;9.282;2023-04-24T00:20:17;93796.16;;;11.25;82.50
9855;BME280;4966;48.112;9.282;2023-04-24T00:22:46;93791.19;;;11.31;82.27
9855;BME280;4966;48.112;9.282;2023-04-24T00:25:12;93790.97;;;11.17;82.74
9855;BME280;4966;48.112;9.282;2023-04-24T00:27:49;93786.84;;;11.49;80.33
9855;BME280;4966;48.112;9.282;2023-04-24T00:30:15;93779.56;;;11.57;79.59
9855;BME280;4966;48.112;9.282;2023-04-24T00:32:41;93782.06;;;11.43;79.93
9855;BME280;4966;48.112;9.282;2023-04-24T00:35:07;93786.44;;;11.51;79.76
9855;BME280;4966;48.112;9.282;2023-04-24T00:37:33;93773.97;;;11.23;80.53
9855;BME280;4966;48.112;9.282;2023-04-24T00:39:58;93770.66;;;11.37;79.56
9855;BME280;4966;48.112;9.282;2023-04-24T00:42:25;93767.91;;;11.34;79.51
9855;BME280;4966;48.112;9.282;2023-04-24T00:44:55;93760.78;;;11.25;80.14
9855;BME280;4966;48.112;9.282;2023-04-24T00:47:24;93756.28;;;11.37;78.89
9855;BME280;4966;48.112;9.282;2023-04-24T00:49:50;93759.06;;;11.17;79.39
9855;BME280;4966;48.112;9.282;2023-04-24T00:52:19;93766.66;;;11.04;79.57
9855;BME280;4966;48.112;9.282;2023-04-24T00:54:52;93765.84;;;11.27;78.94
9855;BME280;4966;48.112;9.282;2023-04-24T00:57:18;93770.09;;;11.01;79.75
9855;BME280;4966;48.112;9.282;2023-04-24T00:59:45;93773.94;;;10.77;81.63
9855;BME280;4966;48.112;9.282;2023-04-24T01:02:14;93771.06;;;10.90;81.35
9855;BME280;4966;48.112;9.282;2023-04-24T01:04:43;93762.66;;;10.75;83.03
9855;BME280;4966;48.112;9.282;2023-04-24T01:07:09;93763.56;;;10.83;83.39
9855;BME280;4966;48.112;9.282;2023-04-24T01:09:41;93764.47;;;10.91;83.36
9855;BME280;4966;48.112;9.282;2023-04-24T01:12:12;93769.47;;;10.89;83.55
9855;BME280;4966;48.112;9.282;2023-04-24T01:14:43;93766.28;;;10.83;83.42
9855;BME280;4966;48.112;9.282;2023-04-24T01:17:09;93766.28;;;10.83;83.63
9855;BME280;4966;48.112;9.282;2023-04-24T01:19:36;93758.63;;;10.69;84.40
9855;BME280;4966;48.112;9.282;2023-04-24T01:22:03;93758.81;;;10.37;86.14
9855;BME280;4966;48.112;9.282;2023-04-24T01:24:29;93756.31;;;10.48;86.03
9855;BME280;4966;48.112;9.282;2023-04-24T01:27:00;93773.94;;;10.35;86.53
9855;BME280;4966;48.112;9.282;2023-04-24T01:29:26;93765.25;;;10.29;87.28
9855;BME280;4966;48.112;9.282;2023-04-24T01:31:55;93771.69;;;10.40;87.03
9855;BME280;4966;48.112;9.282;2023-04-24T01:34:22;93758.31;;;10.32;87.09
9855;BME280;4966;48.112;9.282;2023-04-24T01:36:50;93764.84;;;10.47;86.13
9855;BME280;4966;48.112;9.282;2023-04-24T01:39:17;93767.03;;;10.41;86.32
9855;BME280;4966;48.112;9.282;2023-04-24T01:41:44;93771.63;;;10.56;85.46
9855;BME280;4966;48.112;9.282;2023-04-24T01:44:13;93769.72;;;10.60;84.90
9855;BME280;4966;48.112;9.282;2023-04-24T01:46:44;93769.81;;;10.64;85.12
9855;BME280;4966;48.112;9.282;2023-04-24T01:49:13;93766.75;;;10.89;83.95
9855;BME280;4966;48.112;9.282;2023-04-24T01:51:41;93760.06;;;10.63;84.83
9855;BME280;4966;48.112;9.282;2023-04-24T01:54:14;93769.47;;;10.46;85.17
9855;BME280;4966;48.112;9.282;2023-04-24T01:56:45;93767.34;;;10.78;84.30
9855;BME280;4966;48.112;9.282;2023-04-24T01:59:15;93769.84;;;10.45;85.23
9855;BME280;4966;48.112;9.282;2023-04-24T02:01:54;93763.13;;;10.81;84.13
9855;BME280;4966;48.112;9.282;2023-04-24T02:04:20;93776.56;;;10.93;83.39
9855;BME280;4966;48.112;9.282;2023-04-24T02:06:48;93761.00;;;10.94;83.73
9855;BME280;4966;48.112;9.282;2023-04-24T02:09:16;93753.47;;;11.06;82.60
9855;BME280;4966;48.112;9.282;2023-04-24T02:11:42;93754.72;;;10.67;84.54
9855;BME280;4966;48.112;9.282;2023-04-24T02:14:08;93756.19;;;10.83;84.35
9855;BME280;4966;48.112;9.282;2023-04-24T02:16:34;93759.81;;;10.91;84.35
9855;BME280;4966;48.112;9.282;2023-04-24T02:19:02;93753.53;;;10.87;83.96
9855;BME280;4966;48.112;9.282;2023-04-24T02:21:31;93754.50;;;10.75;84.43
9855;BME280;4966;48.112;9.282;2023-04-24T02:24:00;93752.88;;;10.51;86.11
9855;BME280;4966;48.112;9.282;2023-04-24T02:26:26;93757.31;;;10.40;86.54
9855;BME280;4966;48.112;9.282;2023-04-24T02:28:51;93753.06;;;10.62;85.74
9855;BME280;4966;48.112;9.282;2023-04-24T02:31:17;93748.91;;;10.68;85.55
9855;BME280;4966;48.112;9.282;2023-04-24T02:33:43;93757.56;;;10.74;85.99
9855;BME280;4966;48.112;9.282;2023-04-24T02:36:09;93759.97;;;10.36;87.07
9855;BME280;4966;48.112;9.282;2023-04-24T02:38:47;93761.22;;;10.62;86.98
9855;BME280;4966;48.112;9.282;2023-04-24T02:41:13;93751.78;;;10.75;86.31
9855;BME280;4966;48.112;9.282;2023-04-24T02:43:42;93750.06;;;10.67;86.72
9855;BME280;4966;48.112;9.282;2023-04-24T02:46:08;93749.59;;;10.42;88.20
9855;BME280;4966;48.112;9.282;2023-04-24T02:48:36;93754.16;;;10.18;89.50
9855;BME280;4966;48.112;9.282;2023-04-24T02:51:05;93758.50;;;10.23;90.19
9855;BME280;4966;48.112;9.282;2023-04-24T02:53:31;93750.19;;;10.74;87.25
9855;BME280;4966;48.112;9.282;2023-04-24T02:55:58;93755.44;;;10.63;87.54
9855;BME280;4966;48.112;9.282;2023-04-24T02:58:24;93755.94;;;10.50;88.23
9855;BME280;4966;48.112;9.282;2023-04-24T03:00:55;93754.03;;;10.31;89.70
9855;BME280;4966;48.112;9.282;2023-04-24T03:03:22;93747.09;;;10.33;89.42
9855;BME280;4966;48.112;9.282;2023-04-24T03:05:51;93743.88;;;10.47;88.84
9855;BME280;4966;48.112;9.282;2023-04-24T03:08:17;93736.44;;;10.67;87.34
9855;BME280;4966;48.112;9.282;2023-04-24T03:10:51;93741.59;;;10.72;86.78
9855;BME280;4966;48.112;9.282;2023-04-24T03:13:17;93733.97;;;10.39;87.52
9855;BME280;4966;48.112;9.282;2023-04-24T03:15:45;93728.34;;;10.28;88.46
9855;BME280;4966;48.112;9.282;2023-04-24T03:18:14;93730.00;;;10.33;88.46
9855;BME280;4966;48.112;9.282;2023-04-24T03:20:40;93737.38;;;10.32;88.33
9855;BME280;4966;48.112;9.282;2023-04-24T03:23:06;93730.31;;;10.51;87.12
9855;BME280;4966;48.112;9.282;2023-04-24T03:25:32;93735.63;;;10.24;88.57
9855;BME280;4966;48.112;9.282;2023-04-24T03:27:58;93737.09;;;10.37;88.06
9855;BME280;4966;48.112;9.282;2023-04-24T03:30:24;93727.84;;;10.65;86.10
9855;BME280;4966;48.112;9.282;2023-04-24T03:32:52;93734.16;;;10.69;85.80
9855;BME280;4966;48.112;9.282;2023-04-24T03:35:18;93734.69;;;10.55;85.97
9855;BME280;4966;48.112;9.282;2023-04-24T03:37:44;93742.31;;;10.69;86.00
9855;BME280;4966;48.112;9.282;2023-04-24T03:40:14;93737.97;;;10.64;85.33
9855;BME280;4966;48.112;9.282;2023-04-24T03:42:43;93739.56;;;10.66;86.25
9855;BME280;4966;48.112;9.282;2023-04-24T03:45:09;93743.72;;;10.40;87.17
9855;BME280;4966;48.112;9.282;2023-04-24T03:47:34;93741.34;;;10.38;87.01
9855;BME280;4966;48.112;9.282;2023-04-24T03:50:03;93738.97;;;10.17;87.88
9855;BME280;4966;48.112;9.282;2023-04-24T03:52:29;93753.22;;;10.50;87.48
9855;BME280;4966;48.112;9.282;2023-04-24T03:55:01;93746.09;;;10.41;87.64
9855;BME280;4966;48.112;9.282;2023-04-24T03:57:27;93753.00;;;10.39;87.24
9855;BME280;4966;48.112;9.282;2023-04-24T03:59:55;93753.13;;;10.27;88.15
9855;BME280;4966;48.112;9.282;2023-04-24T04:02:27;93753.81;;;10.20;88.43
9855;BME280;4966;48.112;9.282;2023-04-24T04:04:53;93749.06;;;10.17;88.89
9855;BME280;4966;48.112;9.282;2023-04-24T04:07:21;93761.69;;;9.70;90.80
9855;BME280;4966;48.112;9.282;2023-04-24T04:09:50;93750.81;;;10.06;89.87
9855;BME280;4966;48.112;9.282;2023-04-24T04:12:20;93758.56;;;10.07;89.86
9855;BME280;4966;48.112;9.282;2023-04-24T04:14:45;93756.47;;;9.81;90.57
9855;BME280;4966;48.112;9.282;2023-04-24T04:17:11;93754.44;;;9.94;90.37
9855;BME280;4966;48.112;9.282;2023-04-24T04:19:40;93759.22;;;10.00;90.39
9855;BME280;4966;48.112;9.282;2023-04-24T04:22:11;93758.72;;;9.95;90.06
9855;BME280;4966;48.112;9.282;2023-04-24T04:24:36;93754.34;;;9.90;90.10
9855;BME280;4966;48.112;9.282;2023-04-24T04:27:06;93759.13;;;9.77;90.19
9855;BME280;4966;48.112;9.282;2023-04-24T04:29:33;93761.47;;;9.79;90.07
9855;BME280;4966;48.112;9.282;2023-04-24T04:32:00;93766.53;;;9.61;90.83
9855;BME280;4966;48.112;9.282;2023-04-24T04:34:26;93767.88;;;9.87;89.51
9855;BME280;4966;48.112;9.282;2023-04-24T04:36:54;93763.94;;;10.04;88.29
9855;BME280;4966;48.112;9.282;2023-04-24T04:39:23;93778.88;;;9.58;90.41
9855;BME280;4966;48.112;9.282;2023-04-24T04:41:54;93789.94;;;9.85;88.98
9855;BME280;4966;48.112;9.282;2023-04-24T04:44:22;93788.28;;;9.80;88.39
9855;BME280;4966;48.112;9.282;2023-04-24T04:46:49;93779.41;;;9.84;88.88
9855;BME280;4966;48.112;9.282;2023-04-24T04:49:19;93782.63;;;9.70;89.45
9855;BME280;4966;48.112;9.282;2023-04-24T04:51:46;93784.34;;;9.78;88.70
9855;BME280;4966;48.112;9.282;2023-04-24T04:54:15;93804.09;;;9.75;88.68
9855;BME280;4966;48.112;9.282;2023-04-24T04:56:44;93803.47;;;9.66;88.96
9855;BME280;4966;48.112;9.282;2023-04-24T04:59:12;93806.53;;;9.64;88.89
9855;BME280;4966;48.112;9.282;2023-04-24T05:01:38;93814.84;;;9.71;88.59
9855;BME280;4966;48.112;9.282;2023-04-24T05:04:07;93808.56;;;10.02;87.13
9855;BME280;4966;48.112;9.282;2023-04-24T05:06:35;93814.44;;;9.89;87.56
9855;BME280;4966;48.112;9.282;2023-04-24T05:09:01;93820.66;;;9.70;88.19
9855;BME280;4966;48.112;9.282;2023-04-24T05:11:29;93813.84;;;9.60;88.61
9855;BME280;4966;48.112;9.282;2023-04-24T05:13:55;93824.19;;;9.90;87.24
9855;BME280;4966;48.112;9.282;2023-04-24T05:16:21;93811.81;;;9.92;86.73
9855;BME280;4966;48.112;9.282;2023-04-24T05:18:47;93816.91;;;9.94;86.02
9855;BME280;4966;48.112;9.282;2023-04-24T05:21:15;93813.28;;;9.70;87.10
9855;BME280;4966;48.112;9.282;2023-04-24T05:23:43;93826.94;;;10.09;86.22
9855;BME280;4966;48.112;9.282;2023-04-24T05:26:13;93823.56;;;9.96;87.21
9855;BME280;4966;48.112;9.282;2023-04-24T05:28:39;93831.63;;;9.42;89.44
9855;BME280;4966;48.112;9.282;2023-04-24T05:31:09;93839.28;;;9.71;89.26
9855;BME280;4966;48.112;9.282;2023-04-24T05:33:35;93850.41;;;9.82;89.77
9855;BME280;4966;48.112;9.282;2023-04-24T05:36:06;93869.19;;;9.55;90.67
9855;BME280;4966;48.112;9.282;2023-04-24T05:38:32;93895.44;;;9.20;91.19
9855;BME280;4966;48.112;9.282;2023-04-24T05:40:58;93909.22;;;8.70;85.76
9855;BME280;4966;48.112;9.282;2023-04-24T05:43:24;93905.22;;;8.80;86.46
9855;BME280;4966;48.112;9.282;2023-04-24T05:45:52;93913.25;;;8.36;85.80
9855;BME280;4966;48.112;9.282;2023-04-24T05:48:21;93912.41;;;7.71;87.78
9855;BME280;4966;48.112;9.282;2023-04-24T05:50:52;93905.69;;;8.29;86.38
9855;BME280;4966;48.112;9.282;2023-04-24T05:53:19;93911.81;;;8.14;87.14
9855;BME280;4966;48.112;9.282;2023-04-24T05:55:45;93912.88;;;8.62;85.47
9855;BME280;4966;48.112;9.282;2023-04-24T05:58:11;93909.00;;;8.63;85.99
9855;BME280;4966;48.112;9.282;2023-04-24T06:00:37;93904.53;;;8.55;86.07
9855;BME280;4966;48.112;9.282;2023-04-24T06:03:08;93906.63;;;8.74;85.17
9855;BME280;4966;48.112;9.282;2023-04-24T06:05:37;93912.25;;;8.41;88.60
9855;BME280;4966;48.112;9.282;2023-04-24T06:08:02;93907.25;;;8.55;88.00
9855;BME280;4966;48.112;9.282;2023-04-24T06:10:28;93906.31;;;8.63;85.19
9855;BME280;4966;48.112;9.282;2023-04-24T06:12:59;93908.84;;;9.00;85.25
9855;BME280;4966;48.112;9.282;2023-04-24T06:15:28;93912.72;;;8.99;85.03
9855;BME280;4966;48.112;9.282;2023-04-24T06:17:54;93902.69;;;9.15;83.73
9855;BME280;4966;48.112;9.282;2023-04-24T06:20:20;93888.34;;;9.47;83.79
9855;BME280;4966;48.112;9.282;2023-04-24T06:22:46;93907.72;;;9.61;84.19
9855;BME280;4966;48.112;9.282;2023-04-24T06:25:11;93898.75;;;9.13;83.90
9855;BME280;4966;48.112;9.282;2023-04-24T06:27:39;93910.22;;;9.22;86.57
9855;BME280;4966;48.112;9.282;2023-04-24T06:30:11;93909.19;;;9.27;83.79
9855;BME280;4966;48.112;9.282;2023-04-24T06:32:42;93907.00;;;9.32;84.04
9855;BME280;4966;48.112;9.282;2023-04-24T06:35:11;93906.53;;;9.14;85.10
9855;BME280;4966;48.112;9.282;2023-04-24T06:37:41;93893.28;;;9.41;84.80
9855;BME280;4966;48.112;9.282;2023-04-24T06:40:08;93905.84;;;9.33;84.71
9855;BME280;4966;48.112;9.282;2023-04-24T06:42:36;93903.81;;;9.14;84.28
9855;BME280;4966;48.112;9.282;2023-04-24T06:45:02;93909.41;;;9.06;87.42
9855;BME280;4966;48.112;9.282;2023-04-24T06:47:34;93909.22;;;8.99;87.64
9855;BME280;4966;48.112;9.282;2023-04-24T06:50:00;93903.31;;;9.41;85.99
9855;BME280;4966;48.112;9.282;2023-04-24T06:52:28;93915.78;;;9.42;87.01
9855;BME280;4966;48.112;9.282;2023-04-24T06:55:06;93905.34;;;9.91;84.69
9855;BME280;4966;48.112;9.282;2023-04-24T06:57:32;93909.19;;;9.90;81.33
9855;BME280;4966;48.112;9.282;2023-04-24T07:00:02;93908.63;;;10.16;84.87
9855;BME280;4966;48.112;9.282;2023-04-24T07:02:28;93909.41;;;10.33;82.81
9855;BME280;4966;48.112;9.282;2023-04-24T07:04:54;93909.41;;;10.33;84.29
9855;BME280;4966;48.112;9.282;2023-04-24T07:07:23;93912.28;;;10.24;83.52
9855;BME280;4966;48.112;9.282;2023-04-24T07:09:52;93913.69;;;10.34;82.85
9855;BME280;4966;48.112;9.282;2023-04-24T07:12:21;93916.09;;;10.74;80.97
9855;BME280;4966;48.112;9.282;2023-04-24T07:14:50;93912.81;;;10.84;80.26
9855;BME280;4966;48.112;9.282;2023-04-24T07:17:18;93921.06;;;10.88;77.89
9855;BME280;4966;48.112;9.282;2023-04-24T07:19:44;93924.50;;;10.85;79.28
9855;BME280;4966;48.112;9.282;2023-04-24T07:22:11;93917.31;;;10.96;80.77
9855;BME280;4966;48.112;9.282;2023-04-24T07:24:44;93927.13;;;11.20;83.19
9855;BME280;4966;48.112;9.282;2023-04-24T07:27:13;93930.09;;;11.12;84.10
9855;BME280;4966;48.112;9.282;2023-04-24T07:29:40;93930.66;;;11.44;81.69
9855;BME280;4966;48.112;9.282;2023-04-24T07:32:06;93927.66;;;11.49;82.48
9855;BME280;4966;48.112;9.282;2023-04-24T07:34:35;93924.81;;;11.22;82.64
9855;BME280;4966;48.112;9.282;2023-04-24T07:37:01;93933.91;;;11.49;80.97
9855;BME280;4966;48.112;9.282;2023-04-24T07:39:27;93941.69;;;11.51;78.84
9855;BME280;4966;48.112;9.282;2023-04-24T07:41:57;93942.03;;;11.07;79.22
9855;BME280;4966;48.112;9.282;2023-04-24T07:44:24;93945.81;;;11.22;80.43
9855;BME280;4966;48.112;9.282;2023-04-24T07:46:53;93953.50;;;10.97;79.79
9855;BME280;4966;48.112;9.282;2023-04-24T07:49:19;93956.09;;;10.90;79.73
9855;BME280;4966;48.112;9.282;2023-04-24T07:51:49;93951.34;;;11.06;79.96
9855;BME280;4966;48.112;9.282;2023-04-24T07:54:15;93943.44;;;11.20;80.77
9855;BME280;4966;48.112;9.282;2023-04-24T07:56:44;93944.72;;;11.46;80.94
9855;BME280;4966;48.112;9.282;2023-04-24T07:59:16;93941.16;;;11.65;79.94
9855;BME280;4966;48.112;9.282;2023-04-24T08:01:44;93941.78;;;11.55;77.96
9855;BME280;4966;48.112;9.282;2023-04-24T08:04:10;93944.38;;;11.47;76.21
9855;BME280;4966;48.112;9.282;2023-04-24T08:06:37;93945.56;;;11.50;73.58
9855;BME280;4966;48.112;9.282;2023-04-24T08:09:05;93947.34;;;11.00;69.69
9855;BME280;4966;48.112;9.282;2023-04-24T08:11:34;93950.41;;;11.60;68.62
9855;BME280;4966;48.112;9.282;2023-04-24T08:14:00;93946.69;;;12.15;67.54
9855;BME280;4966;48.112;9.282;2023-04-24T08:16:32;93945.59;;;12.46;67.32
9855;BME280;4966;48.112;9.282;2023-04-24T08:18:58;93948.78;;;12.78;64.43
9855;BME280;4966;48.112;9.282;2023-04-24T08:21:24;93956.91;;;12.74;64.63
9855;BME280;4966;48.112;9.282;2023-04-24T08:23:52;93964.78;;;11.57;63.58
9855;BME280;4966;48.112;9.282;2023-04-24T08:26:18;93966.66;;;11.34;63.73
9855;BME280;4966;48.112;9.282;2023-04-24T08:28:44;93967.88;;;11.79;65.74
9855;BME280;4966;48.112;9.282;2023-04-24T08:31:11;93968.34;;;11.61;65.44
9855;BME280;4966;48.112;9.282;2023-04-24T08:33:37;93965.78;;;11.91;64.81
9855;BME280;4966;48.112;9.282;2023-04-24T08:36:04;93971.03;;;12.27;62.37
9855;BME280;4966;48.112;9.282;2023-04-24T08:38:30;93963.72;;;12.31;60.27
9855;BME280;4966;48.112;9.282;2023-04-24T08:40:58;93970.97;;;12.23;59.27
9855;BME280;4966;48.112;9.282;2023-04-24T08:43:25;93979.59;;;12.02;57.89
9855;BME280;4966;48.112;9.282;2023-04-24T08:45:56;93983.66;;;11.69;59.71
9855;BME280;4966;48.112;9.282;2023-04-24T08:48:26;93973.09;;;11.87;59.75
9855;BME280;4966;48.112;9.282;2023-04-24T08:50:53;93992.19;;;12.60;59.78
9855;BME280;4966;48.112;9.282;2023-04-24T08:53:22;93992.78;;;12.23;58.39
9855;BME280;4966;48.112;9.282;2023-04-24T08:55:50;93991.47;;;12.40;57.44
9855;BME280;4966;48.112;9.282;2023-04-24T08:58:17;94006.47;;;12.04;56.78
9855;BME280;4966;48.112;9.282;2023-04-24T09:00:43;94002.97;;;12.26;56.19
9855;BME280;4966;48.112;9.282;2023-04-24T09:03:16;94006.91;;;12.29;55.27
9855;BME280;4966;48.112;9.282;2023-04-24T09:05:46;94019.44;;;11.87;57.74
9855;BME280;4966;48.112;9.282;2023-04-24T09:08:22;94032.19;;;12.03;57.08
9855;BME280;4966;48.112;9.282;2023-04-24T09:10:52;94019.94;;;12.39;56.23
9855;BME280;4966;48.112;9.282;2023-04-24T09:13:27;94022.63;;;12.62;56.05
9855;BME280;4966;48.112;9.282;2023-04-24T09:15:53;94019.69;;;12.25;53.22
9855;BME280;4966;48.112;9.282;2023-04-24T09:18:19;94019.19;;;12.69;54.37
9855;BME280;4966;48.112;9.282;2023-04-24T09:21:02;94016.22;;;12.28;52.70
9855;BME280;4966;48.112;9.282;2023-04-24T09:23:32;94030.34;;;11.68;54.19
9855;BME280;4966;48.112;9.282;2023-04-24T09:25:59;94037.03;;;11.32;54.11
9855;BME280;4966;48.112;9.282;2023-04-24T09:28:37;94025.84;;;11.76;53.80
9855;BME280;4966;48.112;9.282;2023-04-24T09:31:11;94012.00;;;12.07;52.69
9855;BME280;4966;48.112;9.282;2023-04-24T09:33:39;94020.00;;;12.20;52.49
9855;BME280;4966;48.112;9.282;2023-04-24T09:36:05;94024.88;;;12.83;50.72
9855;BME280;4966;48.112;9.282;2023-04-24T09:38:37;94022.41;;;12.48;51.91
9855;BME280;4966;48.112;9.282;2023-04-24T09:41:08;94021.09;;;12.65;49.82
9855;BME280;4966;48.112;9.282;2023-04-24T09:43:35;94031.38;;;12.48;48.48
9855;BME280;4966;48.112;9.282;2023-04-24T09:46:06;94030.09;;;13.22;44.55
9855;BME280;4966;48.112;9.282;2023-04-24T09:48:36;94021.13;;;13.52;43.58
9855;BME280;4966;48.112;9.282;2023-04-24T09:51:04;94032.38;;;12.63;45.85
9855;BME280;4966;48.112;9.282;2023-04-24T09:53:30;94034.47;;;12.47;46.01
9855;BME280;4966;48.112;9.282;2023-04-24T09:56:02;94035.31;;;12.28;46.04
9855;BME280;4966;48.112;9.282;2023-04-24T09:58:35;94030.00;;;12.62;46.08
9855;BME280;4966;48.112;9.282;2023-04-24T10:01:01;94039.25;;;11.65;48.31
9855;BME280;4966;48.112;9.282;2023-04-24T10:03:31;94045.03;;;11.83;48.65
9855;BME280;4966;48.112;9.282;2023-04-24T10:06:05;94047.44;;;12.07;48.87
9855;BME280;4966;48.112;9.282;2023-04-24T10:08:37;94050.09;;;12.04;49.60
9855;BME280;4966;48.112;9.282;2023-04-24T10:11:04;94054.72;;;12.00;51.31
9855;BME280;4966;48.112;9.282;2023-04-24T10:13:33;94050.38;;;12.94;49.03
9855;BME280;4966;48.112;9.282;2023-04-24T10:16:00;94055.31;;;12.85;48.00
9855;BME280;4966;48.112;9.282;2023-04-24T10:18:29;94061.41;;;13.02;47.55
9855;BME280;4966;48.112;9.282;2023-04-24T10:20:56;94053.91;;;13.52;47.29
9855;BME280;4966;48.112;9.282;2023-04-24T10:23:28;94049.69;;;13.58;47.88
9855;BME280;4966;48.112;9.282;2023-04-24T10:25:58;94054.38;;;13.27;46.83
9855;BME280;4966;48.112;9.282;2023-04-24T10:28:26;94062.63;;;13.31;48.33
9855;BME280;4966;48.112;9.282;2023-04-24T10:30:57;94057.16;;;13.65;46.34
9855;BME280;4966;48.112;9.282;2023-04-24T10:33:26;94067.28;;;13.60;46.10
9855;BME280;4966;48.112;9.282;2023-04-24T10:35:55;94056.22;;;13.50;45.31
9855;BME280;4966;48.112;9.282;2023-04-24T10:38:29;94055.31;;;14.06;45.54
9855;BME280;4966;48.112;9.282;2023-04-24T10:41:11;94046.69;;;14.04;44.78
9855;BME280;4966;48.112;9.282;2023-04-24T10:43:45;94054.81;;;13.97;42.82
9855;BME280;4966;48.112;9.282;2023-04-24T10:46:19;94062.56;;;13.91;41.97
9855;BME280;4966;48.112;9.282;2023-04-24T10:48:53;94077.06;;;13.95;40.95
9855;BME280;4966;48.112;9.282;2023-04-24T10:51:22;94091.72;;;13.19;41.63
9855;BME280;4966;48.112;9.282;2023-04-24T10:53:52;94085.50;;;12.69;42.53
9855;BME280;4966;48.112;9.282;2023-04-24T10:56:18;94071.78;;;13.19;42.67
9855;BME280;4966;48.112;9.282;2023-04-24T10:58:49;94077.56;;;13.40;41.07
9855;BME280;4966;48.112;9.282;2023-04-24T11:01:27;94077.09;;;13.31;38.96
9855;BME280;4966;48.112;9.282;2023-04-24T11:03:58;94080.28;;;13.71;39.74
9855;BME280;4966;48.112;9.282;2023-04-24T11:06:33;94087.22;;;13.61;39.02
9855;BME280;4966;48.112;9.282;2023-04-24T11:09:08;94091.84;;;13.91;39.43
9855;BME280;4966;48.112;9.282;2023-04-24T11:11:38;94083.59;;;14.24;38.88
9855;BME280;4966;48.112;9.282;2023-04-24T11:14:07;94074.97;;;13.81;39.81
9855;BME280;4966;48.112;9.282;2023-04-24T11:16:39;94082.50;;;14.70;38.70
9855;BME280;4966;48.112;9.282;2023-04-24T11:21:41;94098.59;;;13.67;38.79
9855;BME280;4966;48.112;9.282;2023-04-24T11:29:58;94082.94;;;13.97;39.74
9855;BME280;4966;48.112;9.282;2023-04-24T11:32:53;94095.31;;;14.62;37.70
9855;BME280;4966;48.112;9.282;2023-04-24T11:35:21;94090.47;;;14.45;38.85
9855;BME280;4966;48.112;9.282;2023-04-24T11:37:54;94080.84;;;18.05;34.21
9855;BME280;4966;48.112;9.282;2023-04-24T11:40:21;94088.41;;;17.73;33.96
9855;BME280;4966;48.112;9.282;2023-04-24T11:42:59;94081.03;;;16.48;36.18
9855;BME280;4966;48.112;9.282;2023-04-24T11:45:27;94091.94;;;15.31;38.71
9855;BME280;4966;48.112;9.282;2023-04-24T11:47:54;94099.53;;;14.97;40.22
9855;BME280;4966;48.112;9.282;2023-04-24T11:50:22;94106.47;;;14.43;39.38
9855;BME280;4966;48.112;9.282;2023-04-24T11:52:51;94107.41;;;13.53;39.58
9855;BME280;4966;48.112;9.282;2023-04-24T11:57:47;94107.38;;;13.26;39.76
9855;BME280;4966;48.112;9.282;2023-04-24T12:00:20;94120.00;;;13.91;38.34
9855;BME280;4966;48.112;9.282;2023-04-24T12:02:47;94107.72;;;13.78;38.19
9855;BME280;4966;48.112;9.282;2023-04-24T12:05:21;94121.09;;;16.67;34.52
9855;BME280;4966;48.112;9.282;2023-04-24T12:07:47;94121.09;;;17.53;31.69
9855;BME280;4966;48.112;9.282;2023-04-24T12:10:19;94134.47;;;15.70;35.09
9855;BME280;4966;48.112;9.282;2023-04-24T12:12:45;94126.81;;;13.74;37.91
9855;BME280;4966;48.112;9.282;2023-04-24T12:15:12;94131.66;;;13.28;38.35
9855;BME280;4966;48.112;9.282;2023-04-24T12:17:43;94143.94;;;14.01;37.58
9855;BME280;4966;48.112;9.282;2023-04-24T12:20:09;94141.53;;;13.96;37.91
9855;BME280;4966;48.112;9.282;2023-04-24T12:22:49;94145.25;;;14.15;37.78
9855;BME280;4966;48.112;9.282;2023-04-24T12:25:17;94130.97;;;13.34;37.58
9855;BME280;4966;48.112;9.282;2023-04-24T12:27:51;94143.03;;;13.33;38.96
9855;BME280;4966;48.112;9.282;2023-04-24T12:30:27;94137.16;;;13.58;38.35
9855;BME280;4966;48.112;9.282;2023-04-24T12:32:57;94146.72;;;13.45;38.59
9855;BME280;4966;48.112;9.282;2023-04-24T12:35:27;94147.84;;;13.17;38.65
9855;BME280;4966;48.112;9.282;2023-04-24T12:37:53;94149.63;;;12.83;39.66
9855;BME280;4966;48.112;9.282;2023-04-24T12:40:20;94162.44;;;12.55;40.56
9855;BME280;4966;48.112;9.282;2023-04-24T12:42:53;94149.94;;;12.54;40.84
9855;BME280;4966;48.112;9.282;2023-04-24T12:45:22;94150.94;;;13.15;39.86
9855;BME280;4966;48.112;9.282;2023-04-24T12:47:52;94148.28;;;13.72;38.89
9855;BME280;4966;48.112;9.282;2023-04-24T12:50:18;94140.09;;;14.43;37.59
9855;BME280;4966;48.112;9.282;2023-04-24T12:52:47;94136.91;;;15.27;36.07
9855;BME280;4966;48.112;9.282;2023-04-24T12:55:13;94144.09;;;14.53;37.60
9855;BME280;4966;48.112;9.282;2023-04-24T12:57:39;94130.38;;;14.12;36.98
9855;BME280;4966;48.112;9.282;2023-04-24T13:00:07;94137.78;;;14.08;37.65
9855;BME280;4966;48.112;9.282;2023-04-24T13:02:35;94129.53;;;14.42;37.75
9855;BME280;4966;48.112;9.282;2023-04-24T13:05:02;94135.59;;;15.06;36.60
9855;BME280;4966;48.112;9.282;2023-04-24T13:07:28;94147.16;;;14.85;37.28
9855;BME280;4966;48.112;9.282;2023-04-24T13:09:55;94139.28;;;15.28;36.37
9855;BME280;4966;48.112;9.282;2023-04-24T13:12:21;94135.81;;;14.09;37.41
9855;BME280;4966;48.112;9.282;2023-04-24T13:14:49;94142.91;;;13.79;37.89
9855;BME280;4966;48.112;9.282;2023-04-24T13:17:15;94140.00;;;12.89;39.61
9855;BME280;4966;48.112;9.282;2023-04-24T13:19:47;94143.41;;;13.32;39.18
9855;BME280;4966;48.112;9.282;2023-04-24T13:22:16;94138.38;;;12.84;40.38
9855;BME280;4966;48.112;9.282;2023-04-24T13:24:46;94143.53;;;12.43;40.02
9855;BME280;4966;48.112;9.282;2023-04-24T13:27:19;94137.78;;;13.48;39.31
9855;BME280;4966;48.112;9.282;2023-04-24T13:29:45;94142.22;;;14.23;38.44
9855;BME280;4966;48.112;9.282;2023-04-24T13:32:11;94143.94;;;15.21;36.62
9855;BME280;4966;48.112;9.282;2023-04-24T13:34:39;94130.94;;;16.93;34.46
9855;BME280;4966;48.112;9.282;2023-04-24T13:37:11;94136.03;;;16.84;33.86
9855;BME280;4966;48.112;9.282;2023-04-24T13:39:40;94146.94;;;16.55;35.14
9855;BME280;4966;48.112;9.282;2023-04-24T13:42:10;94133.81;;;15.28;35.81